Time;durP1;ratioP1;P1;durP2;ratioP2;P2;SDS_P1;SDS_P2;PMS_P1;PMS_P2;Temp;Humidity;BMP_temperature;BMP_pressure;BME280_temperature;BME280_humidity;BME280_pressure;Samples;Min_cycle;Max_cycle;Signal;HPM_P1;HPM_P2
2022/03/04 00:00:21;;;;;;;37.63;30.75;;;0.20;99.90;;;;;;4973747;28;20027;-73
2022/03/04 00:02:47;;;;;;;39.17;31.50;;;0.20;99.90;;;;;;4976668;28;20023;-74
2022/03/04 00:05:12;;;;;;;37.08;30.35;;;0.20;99.90;;;;;;4979211;28;20473;-74
2022/03/04 00:07:38;;;;;;;35.50;30.30;;;0.20;99.90;;;;;;4980237;28;20362;-74
2022/03/04 00:10:04;;;;;;;39.28;31.40;;;0.20;99.90;;;;;;4977486;28;20058;-74
2022/03/04 00:12:30;;;;;;;37.38;30.60;;;0.20;99.90;;;;;;4985168;28;20050;-73
2022/03/04 00:14:56;;;;;;;39.25;30.95;;;0.10;99.90;;;;;;4980938;28;20516;-73
2022/03/04 00:17:22;;;;;;;43.55;32.40;;;0.00;99.90;;;;;;4979768;28;20030;-73
2022/03/04 00:19:47;;;;;;;37.90;30.95;;;0.00;99.90;;;;;;4983644;28;20069;-72
2022/03/04 00:22:14;;;;;;;45.13;33.17;;;0.10;99.90;;;;;;4981072;28;20035;-72
2022/03/04 00:24:40;;;;;;;39.00;31.52;;;0.10;99.90;;;;;;4983909;28;20045;-72
2022/03/04 00:27:05;;;;;;;40.42;31.90;;;0.30;99.90;;;;;;4981548;28;20483;-72
2022/03/04 00:29:31;;;;;;;39.85;32.50;;;0.20;99.90;;;;;;4994262;28;20074;-72
2022/03/04 00:31:56;;;;;;;41.35;32.53;;;0.10;99.90;;;;;;4979737;28;20031;-72
2022/03/04 00:34:22;;;;;;;39.67;31.48;;;0.00;99.90;;;;;;4980602;28;20081;-72
2022/03/04 00:36:49;;;;;;;41.63;32.60;;;-0.10;99.90;;;;;;4980659;28;20023;-72
2022/03/04 00:39:15;;;;;;;39.70;31.35;;;-0.10;99.90;;;;;;4977604;28;20121;-72
2022/03/04 00:41:41;;;;;;;40.15;31.95;;;-0.20;99.90;;;;;;4982342;28;20117;-72
2022/03/04 00:44:08;;;;;;;41.17;32.97;;;-0.30;99.90;;;;;;4975830;28;20380;-72
2022/03/04 00:46:34;;;;;;;41.00;31.65;;;-0.30;99.90;;;;;;4978767;28;20027;-72
2022/03/04 00:49:00;;;;;;;42.17;32.70;;;-0.40;99.90;;;;;;4982056;28;20118;-72
2022/03/04 00:51:25;;;;;;;41.55;32.15;;;-0.40;99.90;;;;;;4979345;28;20106;-72
2022/03/04 00:53:51;;;;;;;42.45;33.28;;;-0.40;99.90;;;;;;4981196;28;20109;-72
2022/03/04 00:56:17;;;;;;;43.30;32.20;;;-0.40;99.90;;;;;;4975582;28;20047;-72
2022/03/04 00:58:42;;;;;;;42.95;33.33;;;-0.30;99.90;;;;;;4984849;28;20026;-72
2022/03/04 01:01:08;;;;;;;42.13;32.85;;;-0.30;99.90;;;;;;4981115;28;20033;-72
2022/03/04 01:03:34;;;;;;;40.58;31.10;;;-0.40;99.90;;;;;;4977771;28;20026;-72
2022/03/04 01:06:01;;;;;;;43.20;32.97;;;-0.40;99.90;;;;;;4984655;28;20089;-72
2022/03/04 01:08:27;;;;;;;42.88;32.88;;;-0.40;99.90;;;;;;4978812;28;20400;-72
2022/03/04 01:10:53;;;;;;;42.33;32.72;;;-0.50;99.90;;;;;;4976920;28;20221;-72
2022/03/04 01:13:21;;;;;;;43.72;32.72;;;-0.40;99.90;;;;;;4979595;28;20046;-72
2022/03/04 01:15:47;;;;;;;39.70;32.20;;;-0.40;99.90;;;;;;4977440;28;20069;-72
2022/03/04 01:18:13;;;;;;;40.85;32.92;;;-0.50;99.90;;;;;;4980698;28;20102;-72
2022/03/04 01:20:38;;;;;;;42.85;33.40;;;-0.50;99.90;;;;;;4981775;28;20134;-72
2022/03/04 01:23:04;;;;;;;42.58;33.72;;;-0.60;99.90;;;;;;4975035;28;20452;-73
2022/03/04 01:25:30;;;;;;;45.17;34.40;;;-0.60;99.90;;;;;;4974773;28;20378;-72
2022/03/04 01:27:56;;;;;;;43.95;33.53;;;-0.90;99.90;;;;;;4976775;28;20469;-74
2022/03/04 01:30:21;;;;;;;44.15;34.95;;;-0.80;99.90;;;;;;4974696;28;20019;-73
2022/03/04 01:32:47;;;;;;;45.42;35.25;;;-0.80;99.90;;;;;;4978708;28;20015;-73
2022/03/04 01:35:13;;;;;;;45.88;35.47;;;-1.10;99.90;;;;;;4979781;28;20027;-73
2022/03/04 01:37:40;;;;;;;44.50;35.35;;;-1.10;99.90;;;;;;4978427;28;20461;-72
2022/03/04 01:40:07;;;;;;;43.53;34.97;;;-1.20;99.90;;;;;;4982265;28;20038;-73
2022/03/04 01:42:34;;;;;;;46.83;31.17;;;-1.20;99.90;;;;;;4978498;28;20112;-73
2022/03/04 01:44:59;;;;;;;45.45;34.67;;;-1.30;99.90;;;;;;4977330;28;20030;-72
2022/03/04 01:47:25;;;;;;;46.45;37.42;;;-1.40;99.90;;;;;;4977831;28;20034;-72
2022/03/04 01:49:50;;;;;;;42.63;34.70;;;-1.40;99.90;;;;;;4975570;28;20023;-72
2022/03/04 01:52:16;;;;;;;45.72;34.50;;;-1.50;99.90;;;;;;4981745;28;20113;-73
2022/03/04 01:54:42;;;;;;;42.08;34.47;;;-1.70;99.90;;;;;;4979204;28;20388;-73
2022/03/04 01:57:07;;;;;;;44.50;34.95;;;-1.70;99.90;;;;;;4980970;28;20053;-73
2022/03/04 01:59:33;;;;;;;46.60;36.15;;;-1.60;99.90;;;;;;4978477;28;20031;-73
2022/03/04 02:01:59;;;;;;;46.33;36.80;;;-1.70;99.90;;;;;;4982956;28;20423;-72
2022/03/04 02:04:25;;;;;;;43.60;35.65;;;-1.70;99.90;;;;;;4972932;28;20022;-73
2022/03/04 02:06:51;;;;;;;48.53;38.78;;;-1.60;99.90;;;;;;4985300;28;20056;-73
2022/03/04 02:09:17;;;;;;;47.17;36.33;;;-1.50;99.90;;;;;;4972356;28;20023;-74
2022/03/04 02:11:44;;;;;;;47.33;36.88;;;-1.50;99.90;;;;;;4975613;28;20092;-73
2022/03/04 02:14:13;;;;;;;46.28;36.28;;;-1.50;99.90;;;;;;4973787;28;20027;-73
2022/03/04 02:16:43;;;;;;;44.58;36.28;;;-1.50;99.90;;;;;;4974224;28;20030;-73
2022/03/04 02:19:09;;;;;;;48.97;36.83;;;-1.60;99.90;;;;;;4973642;28;20062;-73
2022/03/04 02:21:34;;;;;;;45.38;36.50;;;-1.60;99.90;;;;;;4980586;28;20053;-73
2022/03/04 02:24:00;;;;;;;44.90;37.38;;;-1.50;99.90;;;;;;4975959;28;20054;-72
2022/03/04 02:26:26;;;;;;;46.13;37.33;;;-1.60;99.90;;;;;;4974375;28;20089;-71
2022/03/04 02:28:51;;;;;;;47.80;37.58;;;-1.70;99.90;;;;;;4982889;28;20500;-71
2022/03/04 02:31:20;;;;;;;46.05;37.40;;;-1.60;99.90;;;;;;4972370;28;20115;-71
2022/03/04 02:33:46;;;;;;;47.50;36.90;;;-1.60;99.90;;;;;;4972051;28;20483;-74
2022/03/04 02:36:12;;;;;;;47.78;37.75;;;-1.60;99.90;;;;;;4973703;28;20037;-73
2022/03/04 02:38:38;;;;;;;49.75;37.72;;;-1.70;99.90;;;;;;4973794;28;20022;-72
2022/03/04 02:41:04;;;;;;;45.08;36.85;;;-1.70;99.90;;;;;;4972082;28;20038;-74
2022/03/04 02:43:29;;;;;;;51.00;39.33;;;-1.70;99.90;;;;;;4973224;28;20078;-73
2022/03/04 02:45:55;;;;;;;48.10;38.38;;;-1.70;99.90;;;;;;4973327;28;20057;-72
2022/03/04 02:48:20;;;;;;;52.88;39.88;;;-1.80;99.90;;;;;;4973484;28;20030;-72
2022/03/04 02:50:46;;;;;;;49.17;39.55;;;-1.70;99.90;;;;;;4986260;28;20038;-72
2022/03/04 02:53:11;;;;;;;47.83;38.78;;;-1.80;99.90;;;;;;4973562;28;20026;-72
2022/03/04 02:55:37;;;;;;;53.03;40.05;;;-1.80;99.90;;;;;;4968641;28;20031;-72
2022/03/04 02:58:03;;;;;;;51.30;38.45;;;-1.80;99.90;;;;;;4964180;28;20113;-72
2022/03/04 03:00:29;;;;;;;48.00;38.50;;;-1.80;99.90;;;;;;4977006;28;20030;-73
2022/03/04 03:02:54;;;;;;;50.58;40.15;;;-1.80;99.90;;;;;;4981533;28;20037;-73
2022/03/04 03:05:20;;;;;;;49.38;38.80;;;-1.80;99.90;;;;;;4968406;28;20039;-72
2022/03/04 03:07:46;;;;;;;54.05;40.25;;;-1.80;99.90;;;;;;4964380;28;20023;-72
2022/03/04 03:10:12;;;;;;;49.60;40.00;;;-1.80;99.90;;;;;;4964399;28;20109;-72
2022/03/04 03:12:39;;;;;;;56.35;34.55;;;-1.70;99.90;;;;;;4982279;28;20428;-72
2022/03/04 03:15:06;;;;;;;54.95;40.58;;;-1.90;99.90;;;;;;4973262;28;20396;-74
2022/03/04 03:17:31;;;;;;;50.90;40.50;;;-1.90;99.90;;;;;;4983673;28;20476;-73
2022/03/04 03:19:57;;;;;;;52.38;40.85;;;-2.00;99.90;;;;;;4975495;28;20030;-72
2022/03/04 03:22:22;;;;;;;53.03;41.83;;;-2.00;99.90;;;;;;4983763;28;20038;-73
2022/03/04 03:24:48;;;;;;;53.15;40.58;;;-2.10;99.90;;;;;;4975269;28;20120;-72
2022/03/04 03:27:14;;;;;;;56.13;43.67;;;-2.10;99.90;;;;;;4981724;28;20529;-72
2022/03/04 03:29:40;;;;;;;54.10;40.78;;;-2.00;99.90;;;;;;4976072;28;20068;-73
2022/03/04 03:32:06;;;;;;;56.60;42.85;;;-2.10;99.90;;;;;;4972307;28;20109;-73
2022/03/04 03:34:32;;;;;;;57.03;43.90;;;-2.00;99.90;;;;;;4976073;28;20029;-72
2022/03/04 03:36:57;;;;;;;61.53;37.22;;;-2.10;99.90;;;;;;4982442;28;20023;-72
2022/03/04 03:39:23;;;;;;;57.75;44.03;;;-2.20;99.90;;;;;;4972777;28;20031;-72
2022/03/04 03:41:48;;;;;;;58.60;43.80;;;-2.30;99.90;;;;;;4963083;28;20434;-72
2022/03/04 03:44:14;;;;;;;60.38;46.50;;;-2.30;99.90;;;;;;4966476;28;20034;-72
2022/03/04 03:46:40;;;;;;;90.40;68.43;;;-2.30;99.90;;;;;;4971524;28;20026;-73
2022/03/04 03:49:06;;;;;;;68.63;52.17;;;-2.30;99.90;;;;;;4975978;28;20464;-73
2022/03/04 03:51:33;;;;;;;62.88;45.97;;;-2.30;99.90;;;;;;4972659;28;20022;-73
2022/03/04 03:53:59;;;;;;;66.25;39.20;;;-2.40;99.90;;;;;;4969925;28;20046;-72
2022/03/04 03:56:24;;;;;;;55.17;42.30;;;-2.30;99.90;;;;;;4972739;28;20469;-73
2022/03/04 03:58:50;;;;;;;59.75;45.80;;;-2.30;99.90;;;;;;4975951;28;20027;-72
2022/03/04 04:01:15;;;;;;;57.47;45.35;;;-2.30;99.90;;;;;;4982260;28;20097;-73
2022/03/04 04:03:41;;;;;;;66.00;47.55;;;-2.30;99.90;;;;;;4971528;28;20073;-74
2022/03/04 04:06:07;;;;;;;63.90;45.55;;;-2.10;99.90;;;;;;4963085;28;20544;-73
2022/03/04 04:08:32;;;;;;;60.88;45.38;;;-2.20;99.90;;;;;;4965007;28;20027;-73
2022/03/04 04:10:58;;;;;;;62.90;47.70;;;-2.20;99.90;;;;;;4962838;28;20495;-71
2022/03/04 04:13:24;;;;;;;66.22;48.53;;;-2.20;99.90;;;;;;4975865;28;20507;-72
2022/03/04 04:15:49;;;;;;;68.72;49.88;;;-2.10;99.90;;;;;;4982483;28;20035;-72
2022/03/04 04:18:15;;;;;;;66.38;49.17;;;-2.00;99.90;;;;;;4972174;28;20027;-73
2022/03/04 04:20:40;;;;;;;66.82;49.63;;;-2.10;99.90;;;;;;4971435;28;20437;-73
2022/03/04 04:23:06;;;;;;;65.35;47.30;;;-2.20;99.90;;;;;;4972464;28;20050;-73
2022/03/04 04:25:31;;;;;;;65.07;48.75;;;-2.10;99.90;;;;;;4972316;28;20023;-73
2022/03/04 04:27:57;;;;;;;67.55;50.33;;;-2.30;99.90;;;;;;4972447;28;20461;-74
2022/03/04 04:30:23;;;;;;;71.20;51.28;;;-2.30;99.90;;;;;;4972309;28;20397;-74
2022/03/04 04:32:48;;;;;;;68.93;49.88;;;-2.40;99.90;;;;;;4972418;28;20034;-74
2022/03/04 04:35:14;;;;;;;71.53;51.47;;;-2.40;99.90;;;;;;4971272;28;20026;-73
2022/03/04 04:37:39;;;;;;;72.38;50.72;;;-2.40;99.90;;;;;;4972556;28;20031;-73
2022/03/04 04:40:05;;;;;;;76.43;53.85;;;-2.40;99.90;;;;;;4972636;28;20027;-73
2022/03/04 04:42:31;;;;;;;70.47;48.67;;;-2.40;99.90;;;;;;4963918;28;20463;-75
2022/03/04 04:44:57;;;;;;;75.97;51.47;;;-2.30;99.90;;;;;;4972576;28;20082;-72
2022/03/04 04:47:23;;;;;;;67.65;49.15;;;-2.40;99.90;;;;;;4959570;28;20075;-73
2022/03/04 04:49:48;;;;;;;71.00;50.90;;;-2.40;99.90;;;;;;4963943;28;20024;-74
2022/03/04 04:52:14;;;;;;;68.47;50.88;;;-2.50;99.90;;;;;;4969559;28;20034;-73
2022/03/04 04:54:40;;;;;;;75.40;53.85;;;-2.40;99.90;;;;;;4956592;28;20023;-73
2022/03/04 04:57:06;;;;;;;78.93;52.55;;;-2.50;99.90;;;;;;4971435;28;20440;-74
2022/03/04 04:59:32;;;;;;;74.68;51.40;;;-2.50;99.90;;;;;;4975632;28;20024;-73
2022/03/04 05:01:58;;;;;;;76.65;53.38;;;-2.50;99.90;;;;;;4990255;28;20038;-73
2022/03/04 05:04:23;;;;;;;75.85;52.88;;;-2.50;99.90;;;;;;4975642;28;20102;-73
2022/03/04 05:06:49;;;;;;;73.32;51.80;;;-2.70;99.90;;;;;;4975245;28;20035;-74
2022/03/04 05:09:14;;;;;;;82.43;54.55;;;-2.70;99.90;;;;;;4975343;28;20039;-73
2022/03/04 05:11:40;;;;;;;81.40;54.45;;;-2.70;99.90;;;;;;4974977;28;20042;-73
2022/03/04 05:14:06;;;;;;;84.07;55.67;;;-2.80;99.90;;;;;;4975481;28;20104;-72
2022/03/04 05:16:31;;;;;;;84.07;56.65;;;-2.70;99.90;;;;;;4975340;28;20076;-73
2022/03/04 05:18:57;;;;;;;83.80;56.28;;;-2.70;99.90;;;;;;4975209;28;20041;-73
2022/03/04 05:21:22;;;;;;;87.88;58.38;;;-2.80;99.90;;;;;;4962108;28;20073;-74
2022/03/04 05:24:00;;;;;;;90.35;57.72;;;-2.80;99.90;;;;;;4975192;28;20035;-73
2022/03/04 05:26:27;;;;;;;91.50;58.85;;;-2.80;99.90;;;;;;4962468;28;20026;-72
2022/03/04 05:28:53;;;;;;;88.65;57.42;;;-2.70;99.90;;;;;;4985072;28;20113;-72
2022/03/04 05:31:18;;;;;;;93.05;59.28;;;-2.80;99.90;;;;;;4974831;28;20019;-72
2022/03/04 05:33:44;;;;;;;95.93;59.22;;;-2.80;99.90;;;;;;4975002;28;20027;-72
2022/03/04 05:36:09;;;;;;;93.50;59.28;;;-2.70;99.90;;;;;;4974978;28;20036;-73
2022/03/04 05:38:35;;;;;;;99.45;62.10;;;-2.60;99.90;;;;;;4974808;28;20031;-72
2022/03/04 05:41:00;;;;;;;91.63;59.53;;;-2.60;99.90;;;;;;4974679;28;20030;-72
2022/03/04 05:43:26;;;;;;;97.22;47.85;;;-2.60;99.90;;;;;;4974871;28;20536;-73
2022/03/04 05:45:52;;;;;;;92.20;59.00;;;-2.60;99.90;;;;;;4974605;28;20045;-72
2022/03/04 05:48:17;;;;;;;96.22;59.85;;;-2.60;99.90;;;;;;4974698;28;20077;-72
2022/03/04 05:50:43;;;;;;;92.00;59.33;;;-2.60;99.90;;;;;;4977641;28;20428;-72
2022/03/04 05:53:09;;;;;;;104.75;50.97;;;-2.60;99.90;;;;;;4984068;28;20030;-72
2022/03/04 05:55:35;;;;;;;97.57;61.28;;;-2.70;99.90;;;;;;4982434;28;20030;-72
2022/03/04 05:58:00;;;;;;;97.95;49.75;;;-2.70;99.90;;;;;;4973145;28;20037;-72
2022/03/04 06:00:27;;;;;;;93.45;58.22;;;-2.70;99.90;;;;;;4976282;28;20026;-72
2022/03/04 06:02:52;;;;;;;89.20;56.60;;;-2.70;99.90;;;;;;4982619;28;20109;-72
2022/03/04 06:05:18;;;;;;;91.30;57.80;;;-2.70;99.90;;;;;;4977818;28;20109;-73
2022/03/04 06:07:44;;;;;;;92.32;57.42;;;-2.70;99.90;;;;;;4984117;28;20852;-73
2022/03/04 06:10:09;;;;;;;90.32;56.22;;;-2.70;99.90;;;;;;4987484;28;20456;-72
2022/03/04 06:12:35;;;;;;;98.13;60.38;;;-2.60;99.90;;;;;;4974366;28;20078;-72
2022/03/04 06:15:00;;;;;;;92.28;57.72;;;-2.60;99.90;;;;;;4974272;28;20512;-72
2022/03/04 06:17:26;;;;;;;95.95;57.60;;;-2.60;99.90;;;;;;4974048;28;20067;-72
2022/03/04 06:19:52;;;;;;;89.60;56.78;;;-2.60;99.90;;;;;;4974001;28;20026;-72
2022/03/04 06:22:18;;;;;;;101.57;47.10;;;-2.50;99.90;;;;;;4973911;28;20034;-72
2022/03/04 06:24:44;;;;;;;92.03;56.72;;;-2.50;99.90;;;;;;4973931;28;20105;-72
2022/03/04 06:27:10;;;;;;;90.15;55.85;;;-2.50;99.90;;;;;;4974048;28;20106;-72
2022/03/04 06:29:35;;;;;;;92.70;56.17;;;-2.50;99.90;;;;;;4974060;28;20031;-72
2022/03/04 06:32:01;;;;;;;86.18;54.25;;;-2.40;99.90;;;;;;4983215;28;20037;-72
2022/03/04 06:34:26;;;;;;;93.20;55.25;;;-2.30;99.90;;;;;;4977259;28;20023;-71
2022/03/04 06:36:52;;;;;;;86.78;55.15;;;-2.30;99.90;;;;;;4973642;28;20031;-72
2022/03/04 06:39:17;;;;;;;89.05;54.03;;;-2.30;99.90;;;;;;4973633;28;20029;-72
2022/03/04 06:41:43;;;;;;;85.32;52.92;;;-2.20;99.90;;;;;;4973521;28;20027;-72
2022/03/04 06:44:09;;;;;;;86.15;52.47;;;-2.10;99.90;;;;;;4972057;28;20041;-72
2022/03/04 06:46:34;;;;;;;80.45;50.88;;;-2.10;99.90;;;;;;4988440;28;20023;-72
2022/03/04 06:49:00;;;;;;;82.65;50.78;;;-2.00;99.90;;;;;;4972273;28;20041;-73
2022/03/04 06:51:26;;;;;;;85.75;52.35;;;-2.00;99.90;;;;;;4982881;28;20034;-74
2022/03/04 06:53:52;;;;;;;81.40;51.13;;;-2.00;99.90;;;;;;4976782;28;20019;-72
2022/03/04 06:56:18;;;;;;;80.50;51.28;;;-1.90;99.90;;;;;;4973667;28;20038;-73
2022/03/04 06:58:44;;;;;;;89.80;43.03;;;-1.90;99.90;;;;;;4973449;28;20027;-73
2022/03/04 07:01:10;;;;;;;83.35;53.03;;;-1.90;99.90;;;;;;4973306;28;20030;-74
2022/03/04 07:03:35;;;;;;;88.22;54.88;;;-1.90;99.90;;;;;;4973408;28;20033;-73
2022/03/04 07:06:02;;;;;;;85.55;54.38;;;-1.90;99.90;;;;;;4983360;28;20102;-73
2022/03/04 07:08:30;;;;;;;85.57;42.97;;;-1.90;99.90;;;;;;4976165;28;20022;-73
2022/03/04 07:10:56;;;;;;;83.18;49.53;;;-1.80;99.90;;;;;;4961585;28;20024;-73
2022/03/04 07:13:22;;;;;;;80.63;48.88;;;-1.80;99.90;;;;;;4966373;28;20024;-73
2022/03/04 07:15:48;;;;;;;80.65;49.35;;;-1.80;99.90;;;;;;4964164;28;20022;-73
2022/03/04 07:18:13;;;;;;;111.38;53.42;;;-1.70;99.90;;;;;;4959958;28;20335;-73
2022/03/04 07:20:41;;;;;;;76.88;48.15;;;-1.60;99.90;;;;;;4964831;28;20083;-72
2022/03/04 07:23:07;;;;;;;78.50;47.63;;;-1.60;99.90;;;;;;4971931;28;20488;-73
2022/03/04 07:25:33;;;;;;;80.97;48.50;;;-1.50;99.90;;;;;;4971800;28;20113;-73
2022/03/04 07:27:59;;;;;;;79.55;47.22;;;-1.50;99.90;;;;;;4974377;28;20528;-72
2022/03/04 07:30:25;;;;;;;78.05;46.72;;;-1.50;99.90;;;;;;4976607;28;20035;-72
2022/03/04 07:32:50;;;;;;;78.13;48.78;;;-1.40;99.90;;;;;;4973135;28;20025;-72
2022/03/04 07:35:16;;;;;;;77.38;48.38;;;-1.30;99.90;;;;;;4980600;28;20018;-72
2022/03/04 07:37:43;;;;;;;77.07;48.30;;;-1.30;99.90;;;;;;4976481;28;20035;-73
2022/03/04 07:40:11;;;;;;;75.82;47.17;;;-1.20;99.90;;;;;;4972918;28;20421;-72
2022/03/04 07:42:38;;;;;;;81.95;48.08;;;-1.10;99.90;;;;;;4972689;28;20081;-72
2022/03/04 07:45:06;;;;;;;77.15;45.03;;;-1.10;99.90;;;;;;4972896;28;20105;-72
2022/03/04 07:47:32;;;;;;;75.10;45.67;;;-1.00;99.90;;;;;;4972051;28;20073;-72
2022/03/04 07:49:58;;;;;;;75.85;45.50;;;-0.90;99.90;;;;;;4973689;28;20030;-72
2022/03/04 07:52:31;;;;;;;75.40;43.97;;;-0.90;99.90;;;;;;4976481;28;20031;-72
2022/03/04 07:54:56;;;;;;;75.45;45.75;;;-0.80;99.90;;;;;;4974470;28;20026;-72
2022/03/04 07:57:22;;;;;;;74.38;45.75;;;-0.70;99.90;;;;;;4978532;28;20034;-72
2022/03/04 07:59:47;;;;;;;73.80;43.10;;;-0.60;99.90;;;;;;4972571;28;20481;-72
2022/03/04 08:02:12;;;;;;;71.57;42.80;;;-0.50;99.90;;;;;;4980131;28;20120;-72
2022/03/04 08:04:38;;;;;;;70.25;42.88;;;-0.40;99.90;;;;;;4975697;28;20540;-72
2022/03/04 08:07:03;;;;;;;70.28;42.22;;;-0.30;99.90;;;;;;4979669;28;20034;-72
2022/03/04 08:09:29;;;;;;;70.10;42.38;;;-0.30;99.90;;;;;;4978200;28;20549;-72
2022/03/04 08:11:54;;;;;;;67.70;42.67;;;-0.40;99.90;;;;;;4974611;28;20030;-72
2022/03/04 08:14:20;;;;;;;68.65;41.70;;;-0.20;99.90;;;;;;4983132;28;20509;-72
2022/03/04 08:16:45;;;;;;;74.93;43.55;;;-0.20;99.90;;;;;;4980364;28;20384;-72
2022/03/04 08:19:11;;;;;;;63.63;41.35;;;-0.20;99.90;;;;;;4980577;28;20039;-72
2022/03/04 08:21:36;;;;;;;66.25;40.97;;;-0.10;99.90;;;;;;4972014;28;20034;-72
2022/03/04 08:24:02;;;;;;;65.90;39.55;;;-0.10;99.90;;;;;;4972390;28;20027;-72
2022/03/04 08:26:28;;;;;;;75.57;48.90;;;-0.10;99.90;;;;;;4973869;28;20034;-72
2022/03/04 08:28:53;;;;;;;65.22;40.58;;;0.00;99.90;;;;;;4976143;28;20443;-72
2022/03/04 08:31:19;;;;;;;65.35;39.33;;;0.10;99.90;;;;;;4974468;28;20122;-71
2022/03/04 08:33:45;;;;;;;66.00;39.75;;;0.10;99.90;;;;;;4976083;28;20023;-72
2022/03/04 08:36:13;;;;;;;68.32;39.95;;;0.10;99.90;;;;;;4975996;28;20376;-72
2022/03/04 08:38:39;;;;;;;64.75;39.35;;;0.30;99.90;;;;;;4976070;28;20057;-72
2022/03/04 08:41:05;;;;;;;64.97;39.83;;;0.30;99.90;;;;;;4975777;28;20082;-72
2022/03/04 08:43:34;;;;;;;63.30;38.80;;;0.30;99.90;;;;;;4976004;28;20035;-72
2022/03/04 08:46:01;;;;;;;65.05;39.85;;;0.30;99.90;;;;;;4975887;28;20019;-72
2022/03/04 08:48:27;;;;;;;64.80;38.83;;;0.40;99.90;;;;;;4974158;28;20026;-73
2022/03/04 08:50:52;;;;;;;61.63;39.17;;;0.50;99.90;;;;;;4977745;28;20106;-73
2022/03/04 08:53:18;;;;;;;63.22;38.65;;;0.50;99.90;;;;;;4975562;28;20481;-72
2022/03/04 08:55:44;;;;;;;65.30;38.10;;;0.60;99.90;;;;;;4976042;28;20031;-73
2022/03/04 08:58:10;;;;;;;64.28;38.72;;;0.70;99.90;;;;;;4980465;28;20628;-72
2022/03/04 09:00:35;;;;;;;61.35;37.25;;;0.70;99.90;;;;;;4977628;28;20046;-72
2022/03/04 09:03:01;;;;;;;59.13;38.20;;;0.80;99.90;;;;;;4974271;28;20190;-72
2022/03/04 09:05:27;;;;;;;58.47;37.60;;;0.90;99.90;;;;;;4975547;28;20054;-72
2022/03/04 09:07:53;;;;;;;58.72;37.15;;;0.90;99.90;;;;;;4976485;28;20429;-71
2022/03/04 09:10:18;;;;;;;75.22;46.47;;;1.00;99.90;;;;;;4975172;28;20034;-71
2022/03/04 09:12:44;;;;;;;64.45;38.70;;;0.90;99.90;;;;;;4973923;28;20027;-71
2022/03/04 09:15:10;;;;;;;63.97;38.15;;;0.90;99.90;;;;;;4960186;28;20030;-72
2022/03/04 09:17:36;;;;;;;61.35;36.67;;;0.90;99.90;;;;;;4975196;28;20528;-72
2022/03/04 09:20:02;;;;;;;61.80;35.92;;;1.10;99.90;;;;;;4974040;28;20031;-72
2022/03/04 09:22:28;;;;;;;56.03;35.78;;;1.50;99.90;;;;;;4973877;28;20050;-71
2022/03/04 09:24:53;;;;;;;53.67;33.03;;;1.20;99.90;;;;;;4976418;28;20057;-72
2022/03/04 09:27:19;;;;;;;60.75;37.05;;;1.30;99.90;;;;;;4994549;28;20034;-72
2022/03/04 09:29:45;;;;;;;57.42;35.40;;;1.30;99.90;;;;;;4977443;28;20086;-71
2022/03/04 09:32:11;;;;;;;56.88;35.13;;;1.30;99.90;;;;;;4974764;28;20018;-71
2022/03/04 09:34:37;;;;;;;63.83;36.55;;;1.30;99.90;;;;;;4975022;28;20027;-72
2022/03/04 09:37:02;;;;;;;61.55;36.47;;;1.50;99.90;;;;;;4984943;28;20022;-72
2022/03/04 09:39:28;;;;;;;68.03;36.70;;;1.50;99.90;;;;;;4977503;28;20147;-72
2022/03/04 09:41:54;;;;;;;56.72;34.70;;;1.60;99.90;;;;;;4974694;28;20508;-72
2022/03/04 09:44:20;;;;;;;56.22;35.63;;;1.60;99.90;;;;;;4974830;28;20026;-72
2022/03/04 09:46:45;;;;;;;51.58;34.47;;;1.80;99.90;;;;;;4963670;28;20038;-72
2022/03/04 09:49:14;;;;;;;53.60;34.13;;;1.70;99.90;;;;;;4968410;28;20109;-72
2022/03/04 09:51:40;;;;;;;52.53;33.25;;;1.80;99.90;;;;;;4967739;28;20433;-72
2022/03/04 09:54:06;;;;;;;52.70;33.60;;;1.80;99.90;;;;;;4974488;28;20086;-73
2022/03/04 09:56:31;;;;;;;51.35;33.13;;;2.00;99.90;;;;;;4974742;28;20027;-72
2022/03/04 09:58:57;;;;;;;51.80;32.80;;;2.00;99.90;;;;;;4974398;28;20078;-72
2022/03/04 10:01:22;;;;;;;51.28;33.75;;;2.10;99.90;;;;;;4974384;28;20026;-72
2022/03/04 10:03:53;;;;;;;48.35;32.30;;;2.20;99.90;;;;;;4991017;28;20034;-71
2022/03/04 10:06:20;;;;;;;52.88;33.47;;;2.20;99.90;;;;;;4983576;28;20026;-71
2022/03/04 10:08:48;;;;;;;45.90;30.55;;;2.10;99.90;;;;;;4978464;28;20592;-72
2022/03/04 10:11:27;;;;;;;46.88;29.95;;;2.30;99.90;;;;;;4982674;28;20022;-72
2022/03/04 10:13:55;;;;;;;50.17;31.83;;;2.40;99.90;;;;;;4973071;28;20023;-73
2022/03/04 10:16:26;;;;;;;47.95;30.80;;;2.40;99.90;;;;;;4974355;28;20023;-72
2022/03/04 10:19:13;;;;;;;44.83;28.50;;;2.40;99.90;;;;;;4961635;28;20042;-72
2022/03/04 10:21:51;;;;;;;49.90;30.33;;;2.60;99.90;;;;;;4960944;28;20034;-73
2022/03/04 10:24:38;;;;;;;43.28;28.77;;;2.50;99.90;;;;;;4965286;28;20393;-72
2022/03/04 10:27:09;;;;;;;43.22;28.52;;;2.90;99.90;;;;;;4970061;28;20053;-72
2022/03/04 10:29:42;;;;;;;46.88;29.02;;;2.80;99.90;;;;;;4977480;28;20085;-72
2022/03/04 10:32:13;;;;;;;45.80;28.25;;;2.70;99.90;;;;;;4973397;28;20042;-72
2022/03/04 10:34:46;;;;;;;42.80;27.90;;;2.80;99.90;;;;;;4973942;28;20030;-73
2022/03/04 10:37:12;;;;;;;46.63;28.23;;;2.90;99.90;;;;;;4973844;28;20019;-72
2022/03/04 10:40:00;;;;;;;42.78;27.10;;;3.00;99.90;;;;;;4979764;28;20037;-73
2022/03/04 10:42:51;;;;;;;40.40;26.58;;;3.00;99.90;;;;;;4972474;28;20397;-72
2022/03/04 10:45:20;;;;;;;41.28;25.70;;;3.20;99.90;;;;;;4973642;28;20099;-72
2022/03/04 10:47:53;;;;;;;40.72;25.55;;;3.20;99.90;;;;;;4973908;28;20025;-72
2022/03/04 10:50:25;;;;;;;39.97;24.38;;;3.30;99.90;;;;;;4973488;28;20031;-72
2022/03/04 10:52:59;;;;;;;45.30;27.02;;;3.30;99.90;;;;;;4973720;28;20469;-73
2022/03/04 10:55:27;;;;;;;38.75;26.15;;;3.60;99.90;;;;;;4974280;28;20038;-73
2022/03/04 10:57:53;;;;;;;41.42;25.52;;;3.50;99.90;;;;;;4973784;28;20046;-73
2022/03/04 11:00:26;;;;;;;38.00;24.05;;;3.60;99.90;;;;;;4960507;28;20461;-73
2022/03/04 11:02:53;;;;;;;39.75;23.77;;;3.70;99.90;;;;;;4972115;28;20019;-72
2022/03/04 11:05:19;;;;;;;35.03;24.23;;;3.90;99.90;;;;;;4977958;28;20128;-72
2022/03/04 11:07:45;;;;;;;35.33;24.13;;;3.80;99.90;;;;;;4977459;28;20015;-73
2022/03/04 11:10:11;;;;;;;36.28;23.80;;;3.60;99.90;;;;;;4973202;28;20535;-73
2022/03/04 11:12:37;;;;;;;36.10;24.40;;;3.80;99.90;;;;;;4973448;28;20022;-73
2022/03/04 11:15:03;;;;;;;38.13;23.48;;;4.00;99.90;;;;;;4973154;28;20035;-73
2022/03/04 11:17:29;;;;;;;38.42;23.67;;;4.10;99.90;;;;;;4971925;28;20118;-72
2022/03/04 11:19:56;;;;;;;32.05;21.52;;;4.30;99.90;;;;;;4975772;28;20392;-73
2022/03/04 11:22:22;;;;;;;33.28;22.38;;;4.30;99.90;;;;;;4972669;28;20029;-72
2022/03/04 11:24:47;;;;;;;33.78;21.63;;;4.20;99.90;;;;;;4979724;28;20030;-72
2022/03/04 11:27:16;;;;;;;31.60;21.30;;;4.20;99.90;;;;;;4973917;28;20089;-75
2022/03/04 11:29:42;;;;;;;32.70;21.73;;;4.20;99.90;;;;;;4973754;28;20014;-73
2022/03/04 11:32:08;;;;;;;32.92;22.02;;;4.30;99.90;;;;;;4971214;28;20481;-73
2022/03/04 11:34:35;;;;;;;35.60;21.92;;;4.60;99.90;;;;;;4976351;28;20027;-76
2022/03/04 11:37:03;;;;;;;34.47;21.65;;;4.60;99.90;;;;;;4973111;28;20105;-74
2022/03/04 11:39:28;;;;;;;32.83;20.80;;;4.70;99.90;;;;;;4977020;28;20118;-73
2022/03/04 11:41:54;;;;;;;34.33;21.20;;;4.60;99.90;;;;;;4974605;28;20058;-75
2022/03/04 11:44:24;;;;;;;30.35;19.35;;;4.90;99.90;;;;;;4973154;28;20027;-78
2022/03/04 11:46:54;;;;;;;30.48;18.80;;;4.80;99.90;;;;;;4972316;28;20026;-74
2022/03/04 11:49:28;;;;;;;27.17;18.25;;;4.80;99.90;;;;;;4977446;28;20027;-75
2022/03/04 11:52:09;;;;;;;26.60;17.48;;;4.80;99.90;;;;;;4979817;28;20030;-74
2022/03/04 11:55:05;;;;;;;30.80;19.38;;;4.80;99.90;;;;;;4961374;28;20074;-74
2022/03/04 11:57:44;;;;;;;28.90;18.63;;;4.90;99.90;;;;;;4967641;28;20031;-75
2022/03/04 12:00:10;;;;;;;23.77;16.77;;;5.10;99.90;;;;;;4956462;28;20500;-75
2022/03/04 12:02:38;;;;;;;28.00;18.02;;;5.10;99.90;;;;;;4970060;28;20019;-76
2022/03/04 12:05:30;;;;;;;26.13;16.75;;;6.10;99.90;;;;;;4969949;28;20026;-76
2022/03/04 12:07:55;;;;;;;25.55;17.00;;;6.20;99.90;;;;;;4987410;28;20023;-76
2022/03/04 12:10:22;;;;;;;25.85;16.27;;;6.30;99.90;;;;;;4978553;28;20436;-76
2022/03/04 12:13:12;;;;;;;25.63;16.42;;;6.80;99.90;;;;;;4977129;28;20429;-76
2022/03/04 12:15:40;;;;;;;25.85;15.65;;;7.10;99.90;;;;;;4971234;28;20102;-76
2022/03/04 12:18:16;;;;;;;24.52;14.57;;;7.60;99.90;;;;;;4975063;28;20038;-77
2022/03/04 12:20:41;;;;;;;21.38;13.75;;;8.30;99.90;;;;;;4981782;28;20129;-76
2022/03/04 12:23:18;;;;;;;21.48;14.32;;;7.90;99.90;;;;;;4998825;28;20062;-77
2022/03/04 12:25:56;;;;;;;23.17;14.02;;;8.70;99.90;;;;;;4976160;28;20027;-77
2022/03/04 12:28:22;;;;;;;24.00;13.93;;;8.30;99.90;;;;;;4990592;28;20523;-77